Werte bis 5 Uhr SommerzeitDiagramme Vogelsburg: Tagesdaten MonatsdatenCSV-Datei: Vogelsburg21.csv

Wetterdaten 2021 Station: Vogelsburg
Temperaturen in °C relative Nieder- Global- Wind Wind Wind- Sonnen-
Datum Boden Boden Luft Luft Luft Luft Feuchte schlag strahlung max richtung schein
20 cm 5 cm 20 cm 2 m 2 m max 2 m min % mm W/m2*d m/s m/s ° h

06.05.2021 8,7 7,3 0,5 1,9 2,6 1,0 92 0,0 0 0,4 2,3 --- ---
05.05.2021 8,4 8,9 8,1 7,3 12,4 1,9 72 1,0 4493 1,7 12,6 --- 9,8
04.05.2021 8,7 8,6 9,0 9,5 12,6 5,9 65 5,9 1291 2,7 15,8 --- 2,9
03.05.2021 8,7 9,4 10,2 8,7 15,5 1,1 58 0,0 5516 1,1 7,2 --- 11,3
02.05.2021 9,1 9,4 8,2 7,8 11,8 4,4 64 0,0 2269 2,3 10,9 --- 8,5
01.05.2021 9,2 10,2 10,5 9,5 14,4 5,0 76 0,0 3178 1,1 4,9 --- 8,6
30.04.2021 9,1 9,4 8,6 7,9 12,0 5,0 75 0,0 1783 0,9 4,2 --- 8,6
29.04.2021 9,5 10,7 11,4 10,7 17,3 6,5 76 2,6 3635 1,6 10,4 --- 8,2
28.04.2021 8,2 9,3 11,3 10,8 19,4 -1,4 53 0,2 6003 1,4 8,3 --- 11,1
27.04.2021 7,6 7,9 7,2 6,8 13,7 -1,8 52 0,0 6564 1,7 9,1 --- 11,2
26.04.2021 7,4 7,8 6,0 5,2 12,4 -4,4 58 0,0 6658 1,2 5,7 --- 11,1
25.04.2021 7,7 7,9 5,0 4,6 10,1 -0,1 70 0,0 5944 2,3 8,0 --- 11,2
24.04.2021 7,8 8,3 5,8 5,2 12,1 -2,0 76 0,0 5728 1,7 9,5 --- 11,0
23.04.2021 7,8 8,3 5,8 5,7 12,5 -1,3 73 0,0 4995 1,5 7,4 --- 8,5
22.04.2021 8,4 8,8 6,0 5,8 11,2 -0,1 65 0,0 5784 2,7 9,7 --- 11,3
21.04.2021 8,9 10,2 9,6 9,3 17,2 2,8 75 0,2 5021 2,0 8,2 --- 9,6
20.04.2021 8,0 9,5 9,1 8,6 19,2 0,2 82 0,9 5015 1,0 8,8 --- 9,2
19.04.2021 7,5 8,8 8,9 8,5 13,2 3,6 86 0,6 2495 0,7 5,3 --- 8,6
18.04.2021 6,4 7,7 8,0 7,6 13,2 4,5 89 10,7 2310 0,7 3,9 --- 6,1
17.04.2021 5,7 5,8 5,1 5,2 8,9 1,1 71 0,0 1141 1,1 5,4 --- 3,3
16.04.2021 5,5 6,2 6,1 5,7 11,1 1,6 63 0,0 3155 1,9 10,5 --- 9,5
15.04.2021 5,2 5,1 3,0 2,6 8,0 -2,6 80 0,2 2727 1,1 8,2 --- 8,5
14.04.2021 5,1 5,2 2,8 2,1 9,1 -3,6 81 0,5 3716 0,9 7,0 --- 9,0
13.04.2021 5,3 5,0 2,6 2,4 8,9 -3,1 79 0,0 3131 1,4 12,7 --- 8,5
12.04.2021 6,0 6,1 3,7 3,3 9,1 -0,3 80 0,0 2708 1,9 9,8 --- 8,1
11.04.2021 6,6 7,2 7,3 7,1 14,3 1,9 92 4,2 1200 1,6 11,6 --- 3,9
10.04.2021 6,0 6,6 6,4 6,1 8,7 2,8 93 9,7 1062 0,9 6,0 --- 4,1
09.04.2021 4,9 5,7 5,9 5,5 14,3 -2,4 67 0,0 4659 1,1 7,7 --- 10,2
08.04.2021 4,5 4,5 3,0 2,4 6,1 -1,1 77 0,6 2276 0,8 8,0 --- 7,5
07.04.2021 4,1 3,6 2,3 1,6 6,6 -0,8 81 2,1 1564 1,4 8,1 --- 5,8
06.04.2021 4,3 3,8 1,7 0,2 4,7 -2,3 80 0,4 3274 1,6 13,0 --- 4,3
05.04.2021 5,5 4,2 1,8 1,9 5,6 -2,2 81 2,4 1178 2,8 17,0 --- 3,6
04.04.2021 6,6 6,3 4,9 3,7 9,0 0,0 76 0,0 2844 1,0 5,9 --- 8,0
03.04.2021 7,5 6,3 5,5 4,9 11,4 0,8 63 0,0 3796 1,0 8,0 --- 9,1
02.04.2021 8,5 7,6 5,8 6,1 11,8 5,7 60 0,0 3749 1,5 11,4 --- 8,0
01.04.2021 9,0 9,2 9,7 11,8 24,1 4,3 56 0,0 4554 1,4 10,8 --- 9,3
31.03.2021 8,5 10,2 11,5 12,3 25,3 0,7 62 0,0 4856 0,5 4,3 --- 9,3
30.03.2021 7,9 9,7 10,8 11,5 24,2 0,4 61 0,0 4908 0,6 3,5 --- 9,2
29.03.2021 7,0 9,1 12,2 12,9 21,3 6,8 55 0,0 4481 1,3 8,2 --- 9,3
28.03.2021 5,3 5,5 5,9 5,9 13,6 -1,3 77 0,4 2074 1,0 7,9 --- 7,1
27.03.2021 6,6 6,7 4,7 5,0 9,4 -1,0 83 6,7 2325 1,2 16,3 --- 6,6
26.03.2021 6,7 8,4 9,4 9,3 16,7 3,4 76 0,2 3822 0,9 7,9 --- 8,4
25.03.2021 5,3 6,6 7,5 7,6 16,4 -1,2 76 0,0 2911 0,5 2,9 --- 8,5
24.03.2021 4,3 5,4 5,3 5,5 15,8 -2,8 78 0,0 4394 0,6 4,7 --- 8,8
23.03.2021 4,3 4,6 4,9 4,8 8,5 0,5 80 0,0 958 0,7 6,1 --- 3,0
22.03.2021 3,8 4,2 4,6 4,4 7,9 2,1 78 0,0 1472 2,4 8,0 --- 5,5
21.03.2021 3,6 3,8 4,4 4,4 6,6 2,2 74 0,1 1185 3,5 12,8 --- 4,5
20.03.2021 2,9 3,1 0,6 0,3 5,2 -6,4 60 0,5 3963 0,7 6,1 --- 8,2
19.03.2021 3,4 3,2 1,6 1,6 5,1 -1,2 81 0,1 2130 2,0 10,1 --- 6,1
18.03.2021 3,2 3,1 1,5 1,3 6,8 -2,9 87 0,2 2291 0,8 6,1 --- 5,7
17.03.2021 3,6 3,4 1,8 1,8 5,2 -2,0 84 0,1 1784 1,4 6,0 --- 5,3
16.03.2021 4,0 4,0 3,5 3,7 7,3 0,2 80 0,5 2350 3,6 12,6 --- 6,0
15.03.2021 4,1 4,2 3,8 4,1 8,0 1,5 86 3,2 1541 2,8 12,8 --- 4,8
14.03.2021 4,1 4,2 4,1 4,3 7,3 2,2 83 0,4 1310 1,1 8,2 --- 5,0
13.03.2021 4,6 4,7 4,6 5,2 7,7 2,3 85 6,9 1098 2,9 16,1 --- 4,0
12.03.2021 4,8 5,4 6,0 6,2 11,3 2,5 74 5,4 2471 2,2 15,1 --- 5,9
11.03.2021 4,4 5,4 6,9 7,8 12,8 4,4 79 3,9 1345 2,8 17,6 --- 3,1
10.03.2021 3,3 4,2 4,9 4,5 8,9 1,0 84 0,0 1705 0,9 6,6 --- 6,0
09.03.2021 2,4 2,2 1,2 0,8 5,4 -2,7 91 3,2 1117 0,4 4,5 --- 3,2
08.03.2021 2,3 2,5 1,7 1,7 8,4 -2,0 78 0,4 2023 0,9 5,0 --- 4,6
07.03.2021 2,0 1,5 -1,2 -1,2 7,1 -6,9 84 0,0 3075 1,1 8,0 --- 7,4
06.03.2021 2,5 2,0 -1,2 -1,2 6,5 -7,2 82 0,0 3531 0,5 4,8 --- 7,9
05.03.2021 3,8 3,4 1,6 1,7 5,2 -4,3 81 0,0 1761 2,4 7,8 --- 4,6
04.03.2021 4,2 4,3 4,1 4,5 8,7 2,3 94 6,1 425 1,3 6,9 --- 1,1
03.03.2021 3,9 4,1 3,9 4,6 16,4 -2,7 84 0,0 2307 0,6 3,8 --- 6,9
02.03.2021 4,3 5,1 4,2 4,6 15,4 0,1 85 0,0 2278 0,7 4,0 --- 5,6
01.03.2021 3,7 4,0 4,9 4,9 10,5 1,5 98 0,0 2179 1,1 7,0 --- 6,5
28.02.2021 3,3 3,6 6,2 6,1 11,7 0,0 92 0,0 3586 0,6 5,4 --- 8,2
27.02.2021 3,0 3,1 4,6 4,4 7,2 1,2 93 0,0 1085 0,7 5,7 --- 4,0
26.02.2021 3,2 3,5 6,1 6,3 7,9 3,3 84 3,1 795 0,6 9,0 --- 2,3
25.02.2021 2,8 3,5 10,1 11,0 19,7 5,7 72 0,0 3035 0,7 6,2 --- 7,7
24.02.2021 2,0 3,0 11,0 11,8 19,4 6,2 78 0,0 2841 0,8 8,0 --- 7,5
23.02.2021 0,8 1,7 10,3 10,8 18,4 2,2 74 0,0 2564 0,9 11,0 --- 6,9
22.02.2021 0,1 0,3 6,4 6,8 14,7 0,8 77 0,0 2627 0,6 4,9 --- 7,0
21.02.2021 0,3 0,6 8,2 10,1 19,8 4,1 57 0,0 3028 0,9 4,9 --- 7,4
20.02.2021 0,3 0,6 5,4 6,9 16,7 1,6 76 0,0 2562 0,6 4,3 --- 6,6
19.02.2021 0,3 0,6 4,6 5,6 10,9 1,4 71 0,3 2545 1,2 6,7 --- 6,3
18.02.2021 0,3 -0,5 4,8 3,6 9,7 2,7 61 0,2 989 0,8 4,5 --- 5,3
17.02.2021 0,5 -1,0 6,1 5,1 9,3 3,1 68 1,8 1893 1,1 7,2 --- 5,3
16.02.2021 0,7 -1,1 4,4 3,2 8,0 2,5 70 11,3 1333 0,4 7,9 --- 4,7
15.02.2021 0,8 -0,9 -4,6 -2,2 1,0 -13,1 52 0,1 851 0,9 10,0 --- 3,7
14.02.2021 0,8 -0,6 -11,0 -11,1 0,0 -20,7 64 3,9 2947 0,4 3,3 --- 7,0
13.02.2021 0,8 -0,3 -10,7 -10,9 -2,6 -20,1 72 0,0 3236 1,1 6,0 --- 6,9
12.02.2021 0,9 0,1 -9,6 -10,3 -3,8 -17,1 77 0,0 2352 1,3 10,1 --- 5,1
11.02.2021 0,9 0,4 -4,3 -8,2 -1,6 -13,8 84 0,6 636 0,9 5,0 --- 1,8
10.02.2021 1,0 0,5 -5,6 -15,7 -1,9 -25,3 83 0,0 558 0,4 3,2 --- 1,1
09.02.2021 1,1 0,5 -4,1 -13,9 -4,3 -20,1 81 0,0 584 0,4 1,8 --- 0,3
08.02.2021 1,4 0,7 -3,6 -8,9 -6,3 -13,4 85 0,1 339 0,9 5,2 --- 0,1
07.02.2021 1,8 0,9 -5,4 -5,6 -2,5 -7,7 89 0,0 362 2,9 12,5 --- ---
06.02.2021 2,9 2,1 0,7 0,6 3,6 -2,5 95 0,5 200 2,4 11,3 --- ---
05.02.2021 3,3 3,1 2,7 2,7 5,3 -0,2 96 2,4 321 0,7 3,6 --- ---
04.02.2021 4,2 5,0 5,5 6,0 9,8 -0,1 85 0,9 1170 0,8 8,9 --- 3,6
03.02.2021 3,2 4,8 7,8 8,9 10,7 7,0 90 2,1 370 1,6 8,3 --- 0,6
02.02.2021 1,2 1,9 3,9 4,3 8,3 2,0 96 1,4 278 1,0 6,3 --- ---
01.02.2021 0,5 -0,2 0,1 0,0 2,7 -2,4 91 0,5 540 1,2 4,6 --- 0,4
31.01.2021 0,9 0,0 -1,4 -1,5 3,0 -4,5 80 0,0 1933 1,6 6,7 --- 6,3
30.01.2021 1,8 1,5 0,7 0,9 5,9 -1,3 85 1,5 621 2,5 12,3 --- 2,1
29.01.2021 1,1 1,2 2,1 2,5 6,1 0,2 98 17,8 307 0,8 4,9 --- 0,2
28.01.2021 0,8 0,4 0,8 1,1 2,1 0,1 98 5,8 138 0,7 5,0 --- ---
27.01.2021 0,7 0,1 0,1 0,4 1,5 -1,1 92 1,5 479 1,6 7,4 --- 0,5
26.01.2021 0,8 -0,1 -0,2 0,2 1,8 -2,0 91 2,8 324 2,0 10,3 --- 0,2
25.01.2021 1,3 0,2 -1,6 -1,4 1,3 -3,9 95 0,0 876 0,5 3,6 --- 2,6
24.01.2021 2,1 1,4 0,4 0,7 1,9 -1,1 95 1,7 217 1,1 10,3 --- ---
23.01.2021 2,5 2,0 1,5 1,6 3,6 0,0 94 0,2 428 1,0 5,8 --- 0,7
22.01.2021 3,4 4,1 4,6 5,2 9,8 -0,1 88 2,5 426 1,9 14,3 --- 0,1
21.01.2021 2,2 2,8 5,9 7,0 10,1 4,1 72 1,7 424 3,1 14,3 --- 0,6
20.01.2021 1,5 1,8 4,3 5,2 9,1 2,3 70 0,0 967 2,2 9,6 --- 3,4
19.01.2021 0,7 0,7 2,0 2,7 4,6 0,9 91 6,8 192 2,9 10,2 --- ---
18.01.2021 0,4 -0,2 1,2 1,7 3,3 -0,8 93 0,9 499 1,3 5,6 --- 1,2
17.01.2021 0,4 -0,3 -1,6 -1,9 -0,5 -3,2 85 0,5 393 0,6 3,0 --- ---
16.01.2021 0,5 -0,2 -1,7 -1,9 -0,5 -3,2 75 0,0 258 1,5 5,8 --- ---
15.01.2021 0,7 -0,1 -1,3 -1,2 0,4 -3,5 91 0,0 278 1,5 6,3 --- ---
14.01.2021 0,9 0,3 0,1 0,3 1,3 -0,9 84 0,0 476 2,7 12,2 --- 1,4
13.01.2021 0,9 0,4 1,0 1,4 3,4 0,2 85 0,7 528 1,6 13,3 --- 0,8
12.01.2021 0,7 0,0 0,6 1,2 2,9 -0,2 92 4,1 313 2,5 10,2 --- 0,1
11.01.2021 0,8 -0,1 -0,7 -0,7 1,0 -2,8 78 0,0 679 2,0 9,6 --- 1,4
10.01.2021 1,2 0,3 -1,2 -1,1 2,2 -2,8 93 0,0 606 0,5 2,6 --- 1,9
09.01.2021 1,4 0,7 -0,3 -0,1 1,6 -1,1 88 0,4 314 1,1 8,2 --- ---
08.01.2021 1,6 1,0 0,3 0,5 1,9 -0,5 95 0,7 219 1,0 5,1 --- ---
07.01.2021 1,7 1,0 0,3 0,4 1,3 -0,1 90 0,0 234 1,2 4,9 --- ---
06.01.2021 1,9 1,4 0,9 1,1 1,6 0,4 95 0,1 78 1,7 4,8 --- ---
05.01.2021 1,9 1,3 0,3 0,5 1,2 0,2 97 2,7 93 1,0 3,7 --- ---
04.01.2021 2,0 1,3 -0,1 0,1 0,6 -0,4 98 1,0 45 0,2 3,5 --- ---
03.01.2021 2,2 1,4 0,7 0,8 2,1 -0,4 90 1,2 184 1,2 7,3 --- ---
02.01.2021 2,5 2,0 1,3 1,4 2,9 0,2 91 0,0 307 0,5 6,2 --- ---
01.01.2021 2,5 2,0 1,1 1,1 2,2 0,2 98 1,5 137 0,2 2,4 --- ---

Mittelwerte (Temperaturen, Strahlung, rel. Feuchte, Wind), Summe (Regen) für 2021
3,8 3,8 3,5 3,3 80 166 2.032 1,3

Landesbetrieb Landwirtschaft Hessen 2009

      Werte bis 5 Uhr SommerzeitCSV-Datei: Vogelsburg21.csvDiagramm: Vogelsburg